createdAt,value
2018-05-12T00:00:08.820Z,98477
2018-05-12T00:02:36.853Z,98479
2018-05-12T00:05:04.292Z,98487
2018-05-12T00:07:31.661Z,98495
2018-05-12T00:09:58.982Z,98487
2018-05-12T00:12:27.753Z,98489
2018-05-12T00:14:55.963Z,98488
2018-05-12T00:17:23.223Z,98488
2018-05-12T00:19:50.601Z,98487
2018-05-12T00:22:18.574Z,98488
2018-05-12T00:24:45.941Z,98481
2018-05-12T00:27:13.420Z,98486
2018-05-12T00:29:40.962Z,98489
2018-05-12T00:32:09.032Z,98491
2018-05-12T00:34:37.032Z,98493
2018-05-12T00:37:04.675Z,98497
2018-05-12T00:39:31.991Z,98497
2018-05-12T00:41:59.323Z,98497
2018-05-12T00:44:26.732Z,98495
2018-05-12T00:46:54.801Z,98502
2018-05-12T00:49:22.833Z,98497
2018-05-12T00:51:50.611Z,98500
2018-05-12T00:54:18.032Z,98497
2018-05-12T00:56:45.522Z,98490
2018-05-12T00:59:13.164Z,98499
2018-05-12T01:01:40.672Z,98495
2018-05-12T01:04:08.152Z,98498
2018-05-12T01:06:35.532Z,98496
2018-05-12T01:09:04.852Z,98498
2018-05-12T01:11:32.281Z,98500
2018-05-12T01:14:00.432Z,98497
2018-05-12T01:16:29.572Z,98486
2018-05-12T01:18:57.011Z,98498
2018-05-12T01:21:24.432Z,98493
2018-05-12T01:23:52.016Z,98503
2018-05-12T01:26:19.492Z,98492
2018-05-12T01:28:46.941Z,98497
2018-05-12T01:31:14.212Z,98496
2018-05-12T01:33:41.662Z,98501
2018-05-12T01:36:08.942Z,98499
2018-05-12T01:38:36.522Z,98505
2018-05-12T01:41:04.161Z,98493
2018-05-12T01:43:33.422Z,98493
2018-05-12T01:46:00.982Z,98487
2018-05-12T01:48:28.241Z,98485
2018-05-12T01:50:55.561Z,98491
2018-05-12T01:53:22.901Z,98492
2018-05-12T01:55:50.402Z,98492
2018-05-12T01:58:17.661Z,98494
2018-05-12T02:00:45.462Z,98489
2018-05-12T02:03:13.961Z,98493
2018-05-12T02:05:42.351Z,98503
2018-05-12T02:08:09.772Z,98501
2018-05-12T02:10:38.152Z,98502
2018-05-12T02:13:05.591Z,98509
2018-05-12T02:15:34.631Z,98508
2018-05-12T02:18:03.321Z,98516
2018-05-12T02:20:30.722Z,98518
2018-05-12T02:22:58.816Z,98525
2018-05-12T02:25:27.292Z,98529
2018-05-12T02:27:54.742Z,98525
2018-05-12T02:30:25.623Z,98530
2018-05-12T02:32:53.212Z,98524
2018-05-12T02:35:21.067Z,98527
2018-05-12T02:37:48.471Z,98537
2018-05-12T02:40:15.981Z,98537
2018-05-12T02:42:45.851Z,98523
2018-05-12T02:45:13.181Z,98527
2018-05-12T02:47:44.262Z,98522
2018-05-12T02:50:11.591Z,98526
2018-05-12T02:52:39.082Z,98519
2018-05-12T02:55:07.322Z,98528
2018-05-12T02:57:34.851Z,98518
2018-05-12T03:00:02.642Z,98521
2018-05-12T03:02:31.270Z,98528
2018-05-12T03:04:59.278Z,98522
2018-05-12T03:07:26.781Z,98522
2018-05-12T03:09:54.391Z,98523
2018-05-12T03:12:21.892Z,98527
2018-05-12T03:14:49.772Z,98527
2018-05-12T03:17:17.350Z,98527
2018-05-12T03:19:44.801Z,98528
2018-05-12T03:22:12.205Z,98525
2018-05-12T03:24:39.905Z,98535
2018-05-12T03:27:07.392Z,98536
2018-05-12T03:29:34.921Z,98531
2018-05-12T03:32:03.451Z,98536
2018-05-12T03:34:30.950Z,98531
2018-05-12T03:36:58.382Z,98537
2018-05-12T03:39:26.928Z,98539
2018-05-12T03:41:54.231Z,98536
2018-05-12T03:44:21.772Z,98539
2018-05-12T03:46:49.541Z,98536
2018-05-12T03:49:17.062Z,98544
2018-05-12T03:51:44.491Z,98546
2018-05-12T03:54:11.951Z,98549
2018-05-12T03:56:39.721Z,98550
2018-05-12T03:59:07.161Z,98550
2018-05-12T04:01:34.511Z,98549
2018-05-12T04:04:01.861Z,98552
2018-05-12T04:06:47.091Z,98554
2018-05-12T04:09:32.431Z,98556
2018-05-12T04:12:17.781Z,98553
2018-05-12T04:14:46.701Z,98552
2018-05-12T04:17:14.223Z,98554
2018-05-12T04:19:41.721Z,98541
2018-05-12T04:22:08.801Z,98549
2018-05-12T04:24:36.361Z,98547
2018-05-12T04:27:03.761Z,98543
2018-05-12T04:29:31.003Z,98548
2018-05-12T04:31:58.500Z,98555
2018-05-12T04:34:25.881Z,98551
2018-05-12T04:36:53.190Z,98552
2018-05-12T04:39:21.210Z,98547
2018-05-12T04:41:49.380Z,98546
2018-05-12T04:44:17.591Z,98549
2018-05-12T04:46:44.911Z,98555
2018-05-12T04:49:16.101Z,98558
2018-05-12T04:51:44.411Z,98564
2018-05-12T04:54:11.906Z,98573
2018-05-12T04:56:39.312Z,98563
2018-05-12T04:59:06.691Z,98563
2018-05-12T05:01:34.294Z,98564
2018-05-12T05:04:02.681Z,98565
2018-05-12T05:06:30.891Z,98570
2018-05-12T05:08:59.123Z,98569
2018-05-12T05:11:28.093Z,98578
2018-05-12T05:13:58.931Z,98574
2018-05-12T05:16:26.292Z,98574
2018-05-12T05:18:53.791Z,98576
2018-05-12T05:21:21.391Z,98578
2018-05-12T05:23:48.721Z,98572
2018-05-12T05:26:16.241Z,98578
2018-05-12T05:28:44.242Z,98578
2018-05-12T05:31:11.842Z,98583
2018-05-12T05:33:39.374Z,98574
2018-05-12T05:36:07.632Z,98576
2018-05-12T05:38:35.202Z,98580
2018-05-12T05:41:02.771Z,98578
2018-05-12T05:43:31.152Z,98578
2018-05-12T05:45:58.592Z,98584
2018-05-12T05:48:25.961Z,98583
2018-05-12T05:50:54.212Z,98585
2018-05-12T05:53:21.722Z,98583
2018-05-12T05:55:49.542Z,98580
2018-05-12T05:58:17.023Z,98581
2018-05-12T06:00:44.637Z,98580
2018-05-12T06:03:12.151Z,98575
2018-05-12T06:05:39.470Z,98584
2018-05-12T06:08:06.986Z,98589
2018-05-12T06:10:34.732Z,98587
2018-05-12T06:13:02.210Z,98583
2018-05-12T06:15:29.581Z,98595
2018-05-12T06:17:57.103Z,98590
2018-05-12T06:20:24.502Z,98589
2018-05-12T06:22:52.132Z,98584
2018-05-12T06:25:19.421Z,98589
2018-05-12T06:27:46.992Z,98589
2018-05-12T06:30:14.372Z,98594
2018-05-12T06:32:41.982Z,98585
2018-05-12T06:35:09.303Z,98585
2018-05-12T06:37:37.080Z,98588
2018-05-12T06:40:04.711Z,98582
2018-05-12T06:42:32.152Z,98587
2018-05-12T06:44:59.631Z,98585
2018-05-12T06:47:27.073Z,98590
2018-05-12T06:49:54.813Z,98587
2018-05-12T06:52:22.221Z,98580
2018-05-12T06:54:49.831Z,98584
2018-05-12T06:57:16.954Z,98583
2018-05-12T06:59:44.291Z,98586
2018-05-12T07:02:11.842Z,98589
2018-05-12T07:04:39.490Z,98588
2018-05-12T07:07:07.042Z,98588
2018-05-12T07:09:34.462Z,98579
2018-05-12T07:12:01.576Z,98584
2018-05-12T07:14:28.892Z,98580
2018-05-12T07:16:56.242Z,98579
2018-05-12T07:19:23.802Z,98574
2018-05-12T07:21:51.571Z,98576
2018-05-12T07:24:20.163Z,98579
2018-05-12T07:26:48.018Z,98577
2018-05-12T07:29:15.532Z,98571
2018-05-12T07:31:43.059Z,98577
2018-05-12T07:34:11.462Z,98571
2018-05-12T07:36:38.792Z,98561
2018-05-12T07:39:07.059Z,98565
2018-05-12T07:41:35.332Z,98556
2018-05-12T07:44:03.712Z,98554
2018-05-12T07:46:31.434Z,98548
2018-05-12T07:48:59.041Z,98543
2018-05-12T07:51:27.468Z,98547
2018-05-12T07:53:55.092Z,98547
2018-05-12T07:56:22.604Z,98548
2018-05-12T07:58:50.302Z,98539
2018-05-12T08:01:17.529Z,98549
2018-05-12T08:03:46.443Z,98548
2018-05-12T08:06:14.373Z,98539
2018-05-12T08:08:41.861Z,98536
2018-05-12T08:11:09.982Z,98539
2018-05-12T08:13:37.361Z,98537
2018-05-12T08:16:04.922Z,98535
2018-05-12T08:18:32.392Z,98527
2018-05-12T08:20:59.621Z,98534
2018-05-12T08:23:27.940Z,98520
2018-05-12T08:25:55.512Z,98516
2018-05-12T08:28:22.871Z,98521
2018-05-12T08:30:50.005Z,98517
2018-05-12T08:33:18.651Z,98507
2018-05-12T08:35:46.091Z,98510
2018-05-12T08:38:14.221Z,98503
2018-05-12T08:40:41.400Z,98501
2018-05-12T08:43:08.991Z,98501
2018-05-12T08:45:36.990Z,98503
2018-05-12T08:48:05.531Z,98497
2018-05-12T08:50:33.001Z,98499
2018-05-12T08:53:01.082Z,98496
2018-05-12T08:55:28.691Z,98490
2018-05-12T08:57:56.954Z,98488
2018-05-12T09:00:24.541Z,98487
2018-05-12T09:02:52.691Z,98483
2018-05-12T09:05:21.030Z,98481
2018-05-12T09:07:49.161Z,98479
2018-05-12T09:10:17.731Z,98473
2018-05-12T09:12:45.191Z,98477
2018-05-12T09:15:12.742Z,98476
2018-05-12T09:17:40.251Z,98465
2018-05-12T09:20:08.131Z,98468
2018-05-12T09:22:36.051Z,98481
2018-05-12T09:25:03.861Z,98465
2018-05-12T09:27:31.799Z,98467
2018-05-12T09:29:59.540Z,98470
2018-05-12T09:32:27.053Z,98474
2018-05-12T09:34:55.335Z,98469
2018-05-12T09:37:23.432Z,98469
2018-05-12T09:39:51.044Z,98461
2018-05-12T09:42:19.444Z,98459
2018-05-12T09:44:48.039Z,98444
2018-05-12T09:47:16.430Z,98458
2018-05-12T09:49:43.992Z,98454
2018-05-12T09:52:11.521Z,98454
2018-05-12T09:54:38.943Z,98446
2018-05-12T09:57:08.641Z,98443
2018-05-12T09:59:36.095Z,98443
2018-05-12T10:02:03.421Z,98441
2018-05-12T10:04:32.461Z,98437
2018-05-12T10:07:00.561Z,98427
2018-05-12T10:09:28.821Z,98435
2018-05-12T10:11:56.131Z,98426
2018-05-12T10:14:23.491Z,98425
2018-05-12T10:16:50.951Z,98411
2018-05-12T10:19:18.412Z,98405
2018-05-12T10:21:45.880Z,98411
2018-05-12T10:24:14.730Z,98405
2018-05-12T10:26:42.011Z,98392
2018-05-12T10:29:09.392Z,98401
2018-05-12T10:31:37.220Z,98390
2018-05-12T10:34:04.872Z,98391
2018-05-12T10:36:32.452Z,98387
2018-05-12T10:38:59.865Z,98390
2018-05-12T10:41:27.512Z,98384
2018-05-12T10:43:55.684Z,98386
2018-05-12T10:46:23.241Z,98373
2018-05-12T10:48:51.253Z,98369
2018-05-12T10:51:18.681Z,98360
2018-05-12T10:53:46.223Z,98350
2018-05-12T10:56:13.631Z,98355
2018-05-12T10:58:41.552Z,98342
2018-05-12T11:01:09.911Z,98346
2018-05-12T11:03:37.524Z,98331
2018-05-12T11:06:05.212Z,98329
2018-05-12T11:08:32.632Z,98335
2018-05-12T11:10:59.932Z,98324
2018-05-12T11:13:27.602Z,98319
2018-05-12T11:15:55.638Z,98323
2018-05-12T11:18:23.473Z,98318
2018-05-12T11:20:50.962Z,98311
2018-05-12T11:23:18.712Z,98311
2018-05-12T11:25:48.202Z,98308
2018-05-12T11:28:15.912Z,98308
2018-05-12T11:30:43.453Z,98301
2018-05-12T11:33:11.752Z,98304
2018-05-12T11:35:39.282Z,98305
2018-05-12T11:38:06.862Z,98298
2018-05-12T11:40:34.381Z,98294
2018-05-12T11:43:01.822Z,98296
2018-05-12T11:45:29.242Z,98291
2018-05-12T11:47:56.652Z,98292
2018-05-12T11:50:23.992Z,98281
2018-05-12T11:52:51.742Z,98271
2018-05-12T11:55:19.212Z,98270
2018-05-12T11:57:47.511Z,98265
2018-05-12T12:00:15.131Z,98264
2018-05-12T12:02:43.382Z,98258
2018-05-12T12:05:10.811Z,98254
2018-05-12T12:07:38.172Z,98251
2018-05-12T12:10:05.703Z,98235
2018-05-12T12:12:33.301Z,98237
2018-05-12T12:15:00.793Z,98232
2018-05-12T12:17:28.093Z,98238
2018-05-12T12:19:55.916Z,98227
2018-05-12T12:22:23.462Z,98227
2018-05-12T12:24:51.336Z,98211
2018-05-12T12:27:19.642Z,98222
2018-05-12T12:29:47.841Z,98223
2018-05-12T12:32:15.482Z,98218
2018-05-12T12:34:42.832Z,98220
2018-05-12T12:37:10.108Z,98211
2018-05-12T12:39:37.942Z,98223
2018-05-12T12:42:05.462Z,98210
2018-05-12T12:44:33.022Z,98216
2018-05-12T12:47:00.651Z,98218
2018-05-12T12:49:28.042Z,98206
2018-05-12T12:51:55.543Z,98217
2018-05-12T12:54:24.761Z,98207
2018-05-12T12:56:53.474Z,98206
2018-05-12T12:59:20.853Z,98211
2018-05-12T13:01:49.332Z,98198
2018-05-12T13:04:17.623Z,98197
2018-05-12T13:06:46.192Z,98194
2018-05-12T13:09:16.090Z,98188
2018-05-12T13:11:44.179Z,98192
2018-05-12T13:14:12.061Z,98191
2018-05-12T13:16:39.385Z,98198
2018-05-12T13:19:07.151Z,98201
2018-05-12T13:21:34.634Z,98186
2018-05-12T13:24:02.262Z,98175
2018-05-12T13:26:32.411Z,98184
2018-05-12T13:29:03.527Z,98190
2018-05-12T13:31:30.992Z,98189
2018-05-12T13:33:58.432Z,98186
2018-05-12T13:36:26.052Z,98179
2018-05-12T13:38:53.532Z,98178
2018-05-12T13:41:20.791Z,98181
2018-05-12T13:43:48.303Z,98176
2018-05-12T13:46:15.982Z,98183
2018-05-12T13:48:45.351Z,98183
2018-05-12T13:51:12.832Z,98175
2018-05-12T13:53:43.362Z,98176
2018-05-12T13:56:12.371Z,98179
2018-05-12T13:58:39.922Z,98181
2018-05-12T14:01:07.571Z,98185
2018-05-12T14:03:35.662Z,98183
2018-05-12T14:06:05.283Z,98184
2018-05-12T14:08:32.892Z,98180
2018-05-12T14:11:00.421Z,98175
2018-05-12T14:13:31.291Z,98183
2018-05-12T14:15:59.100Z,98174
2018-05-12T14:18:27.412Z,98169
2018-05-12T14:20:55.012Z,98174
2018-05-12T14:23:22.652Z,98172
2018-05-12T14:25:50.073Z,98170
2018-05-12T14:28:17.305Z,98173
2018-05-12T14:30:45.001Z,98175
2018-05-12T14:33:12.421Z,98169
2018-05-12T14:35:44.473Z,98168
2018-05-12T14:38:12.071Z,98165
2018-05-12T14:40:40.532Z,98170
2018-05-12T14:43:08.262Z,98158
2018-05-12T14:45:35.841Z,98165
2018-05-12T14:48:03.483Z,98159
2018-05-12T14:50:30.882Z,98164
2018-05-12T14:52:58.472Z,98160
2018-05-12T14:55:26.341Z,98156
2018-05-12T14:57:54.902Z,98146
2018-05-12T15:00:22.362Z,98158
2018-05-12T15:02:49.852Z,98155
2018-05-12T15:05:17.262Z,98150
2018-05-12T15:07:45.072Z,98152
2018-05-12T15:10:13.923Z,98155
2018-05-12T15:12:42.222Z,98160
2018-05-12T15:15:09.502Z,98155
2018-05-12T15:17:37.677Z,98142
2018-05-12T15:20:05.214Z,98145
2018-05-12T15:22:33.002Z,98131
2018-05-12T15:25:00.613Z,98138
2018-05-12T15:27:28.462Z,98157
2018-05-12T15:29:55.894Z,98161
2018-05-12T15:32:23.343Z,98145
2018-05-12T15:34:50.883Z,98139
2018-05-12T15:37:18.593Z,98152
2018-05-12T15:39:46.032Z,98149
2018-05-12T15:42:13.442Z,98147
2018-05-12T15:44:40.972Z,98142
2018-05-12T15:47:08.402Z,98139
2018-05-12T15:49:35.874Z,98136
2018-05-12T15:52:03.345Z,98128
2018-05-12T15:54:31.264Z,98129
2018-05-12T15:56:58.533Z,98127
2018-05-12T15:59:26.395Z,98132
2018-05-12T16:01:54.062Z,98120
2018-05-12T16:04:21.811Z,98125
2018-05-12T16:06:49.151Z,98123
2018-05-12T16:09:16.571Z,98121
2018-05-12T16:11:44.073Z,98119
2018-05-12T16:14:11.393Z,98112
2018-05-12T16:16:39.252Z,98115
2018-05-12T16:19:06.863Z,98122
2018-05-12T16:21:34.592Z,98117
2018-05-12T16:24:02.203Z,98118
2018-05-12T16:26:29.598Z,98117
2018-05-12T16:28:57.222Z,98112
2018-05-12T16:31:24.712Z,98105
2018-05-12T16:33:53.132Z,98109
2018-05-12T16:36:20.821Z,98111
2018-05-12T16:38:49.089Z,98103
2018-05-12T16:41:16.886Z,98100
2018-05-12T16:43:44.251Z,98110
2018-05-12T16:46:13.682Z,98106
2018-05-12T16:48:41.272Z,98111
2018-05-12T16:51:08.862Z,98112
2018-05-12T16:53:36.582Z,98115
2018-05-12T16:56:04.532Z,98100
2018-05-12T16:58:32.034Z,98108
2018-05-12T17:00:59.612Z,98107
2018-05-12T17:03:27.113Z,98111
2018-05-12T17:05:54.832Z,98111
2018-05-12T17:08:22.443Z,98111
2018-05-12T17:10:49.902Z,98115
2018-05-12T17:13:17.686Z,98108
2018-05-12T17:15:45.512Z,98116
2018-05-12T17:18:13.793Z,98114
2018-05-12T17:20:41.412Z,98118
2018-05-12T17:23:09.214Z,98114
2018-05-12T17:25:36.634Z,98115
2018-05-12T17:28:04.091Z,98117
2018-05-12T17:30:31.893Z,98114
2018-05-12T17:33:00.017Z,98118
2018-05-12T17:35:27.392Z,98123
2018-05-12T17:37:55.042Z,98118
2018-05-12T17:40:23.795Z,98113
2018-05-12T17:42:51.992Z,98122
2018-05-12T17:45:19.502Z,98102
2018-05-12T17:47:48.031Z,98117
2018-05-12T17:50:15.488Z,98112
2018-05-12T17:52:42.981Z,98109
2018-05-12T17:55:10.477Z,98115
2018-05-12T17:57:37.874Z,98122
2018-05-12T18:00:05.453Z,98121
2018-05-12T18:02:34.241Z,98116
2018-05-12T18:05:01.891Z,98122
2018-05-12T18:07:29.342Z,98121
2018-05-12T18:09:57.011Z,98121
2018-05-12T18:12:24.582Z,98114
2018-05-12T18:14:52.284Z,98118
2018-05-12T18:17:19.813Z,98116
2018-05-12T18:19:47.462Z,98120
2018-05-12T18:22:14.752Z,98122
2018-05-12T18:24:42.053Z,98124
2018-05-12T18:27:09.672Z,98125
2018-05-12T18:29:37.055Z,98128
2018-05-12T18:32:04.573Z,98128
2018-05-12T18:34:31.945Z,98125
2018-05-12T18:37:01.342Z,98129
2018-05-12T18:39:29.811Z,98132
2018-05-12T18:41:57.072Z,98133
2018-05-12T18:44:24.581Z,98134
2018-05-12T18:46:52.304Z,98134
2018-05-12T18:49:19.921Z,98138
2018-05-12T18:51:47.573Z,98131
2018-05-12T18:54:15.982Z,98133
2018-05-12T18:56:44.333Z,98127
2018-05-12T18:59:11.811Z,98137
2018-05-12T19:01:39.322Z,98132
2018-05-12T19:04:06.862Z,98134
2018-05-12T19:06:35.596Z,98136
2018-05-12T19:09:04.403Z,98133
2018-05-12T19:11:31.752Z,98131
2018-05-12T19:13:59.383Z,98134
2018-05-12T19:16:27.011Z,98144
2018-05-12T19:18:57.621Z,98148
2018-05-12T19:21:25.222Z,98155
2018-05-12T19:23:52.812Z,98158
2018-05-12T19:26:20.310Z,98152
2018-05-12T19:28:47.582Z,98153
2018-05-12T19:31:15.101Z,98153
2018-05-12T19:33:43.093Z,98149
2018-05-12T19:36:10.592Z,98147
2018-05-12T19:38:39.056Z,98148
2018-05-12T19:41:06.662Z,98147
2018-05-12T19:43:34.081Z,98147
2018-05-12T19:46:01.481Z,98149
2018-05-12T19:48:29.082Z,98141
2018-05-12T19:50:57.353Z,98142
2018-05-12T19:53:25.860Z,98143
2018-05-12T19:55:53.300Z,98138
2018-05-12T19:58:21.503Z,98146
2018-05-12T20:00:49.212Z,98150
2018-05-12T20:03:16.930Z,98145
2018-05-12T20:05:46.064Z,98145
2018-05-12T20:08:13.640Z,98151
2018-05-12T20:10:41.501Z,98159
2018-05-12T20:13:08.902Z,98152
2018-05-12T20:15:40.241Z,98155
2018-05-12T20:18:08.221Z,98161
2018-05-12T20:20:35.970Z,98156
2018-05-12T20:23:04.270Z,98150
2018-05-12T20:25:31.800Z,98151
2018-05-12T20:28:01.841Z,98151
2018-05-12T20:30:29.370Z,98145
2018-05-12T20:32:56.871Z,98146
2018-05-12T20:35:25.530Z,98145
2018-05-12T20:37:53.091Z,98145
2018-05-12T20:40:21.980Z,98139
2018-05-12T20:42:49.741Z,98140
2018-05-12T20:45:17.940Z,98126
2018-05-12T20:47:46.331Z,98134
2018-05-12T20:50:13.800Z,98132
2018-05-12T20:52:41.970Z,98131
2018-05-12T20:55:09.631Z,98128
2018-05-12T20:57:37.291Z,98124
2018-05-12T21:00:12.440Z,98133
2018-05-12T21:02:39.973Z,98132
2018-05-12T21:05:07.465Z,98134
2018-05-12T21:07:35.111Z,98131
2018-05-12T21:10:05.490Z,98130
2018-05-12T21:12:33.711Z,98127
2018-05-12T21:15:06.380Z,98129
2018-05-12T21:17:33.800Z,98126
2018-05-12T21:20:01.261Z,98126
2018-05-12T21:22:29.731Z,98124
2018-05-12T21:24:59.301Z,98126
2018-05-12T21:27:27.200Z,98121
2018-05-12T21:29:54.740Z,98114
2018-05-12T21:32:23.020Z,98124
2018-05-12T21:34:51.742Z,98116
2018-05-12T21:37:33.470Z,98119
2018-05-12T21:40:00.961Z,98119
2018-05-12T21:42:31.219Z,98111
2018-05-12T21:44:58.821Z,98106
2018-05-12T21:47:27.290Z,98112
2018-05-12T21:49:54.889Z,98111
2018-05-12T21:52:22.451Z,98116
2018-05-12T21:54:56.950Z,98106
2018-05-12T21:57:24.410Z,98104
2018-05-12T21:59:52.050Z,98101
2018-05-12T22:02:20.530Z,98096
2018-05-12T22:04:47.968Z,98096
2018-05-12T22:07:15.833Z,98097
2018-05-12T22:09:44.123Z,98093
2018-05-12T22:12:11.870Z,98097
2018-05-12T22:14:41.890Z,98096
2018-05-12T22:17:09.291Z,98092
2018-05-12T22:19:36.784Z,98093
2018-05-12T22:22:08.194Z,98084
2018-05-12T22:24:36.261Z,98090
2018-05-12T22:27:04.422Z,98090
2018-05-12T22:29:34.051Z,98086
2018-05-12T22:32:04.051Z,98095
2018-05-12T22:34:31.472Z,98084
2018-05-12T22:37:02.721Z,98090
2018-05-12T22:39:30.540Z,98086
2018-05-12T22:41:59.262Z,98073
2018-05-12T22:44:26.881Z,98078
2018-05-12T22:46:54.161Z,98073
2018-05-12T22:49:21.950Z,98076
2018-05-12T22:51:52.620Z,98070
2018-05-12T22:54:21.000Z,98066
2018-05-12T22:56:48.330Z,98062
2018-05-12T22:59:15.910Z,98053
2018-05-12T23:01:43.360Z,98047
2018-05-12T23:04:10.722Z,98050
2018-05-12T23:06:41.290Z,98039
2018-05-12T23:09:09.110Z,98035
2018-05-12T23:11:38.080Z,98033
2018-05-12T23:14:08.120Z,98032
2018-05-12T23:16:35.660Z,98030
2018-05-12T23:19:03.243Z,98028
2018-05-12T23:21:31.583Z,98029
2018-05-12T23:24:03.460Z,98015
2018-05-12T23:26:30.909Z,98024
2018-05-12T23:28:58.240Z,98028
2018-05-12T23:31:26.827Z,98023
2018-05-12T23:33:54.341Z,98022
2018-05-12T23:36:22.331Z,98017
2018-05-12T23:38:54.319Z,98010
2018-05-12T23:41:21.651Z,98011
2018-05-12T23:43:48.991Z,98011
2018-05-12T23:46:16.670Z,98014
2018-05-12T23:48:44.110Z,98015
2018-05-12T23:51:12.885Z,98012
2018-05-12T23:53:40.480Z,98006
2018-05-12T23:56:07.880Z,98006
2018-05-12T23:58:36.345Z,98004
